YBCG Airport Information

Runway Information
Runway 14 Length 6699 ft width 148 ft
Elevation 21 ft Threshold 0 ft Heading 150
Runway 32 Length 6699 ft Width 148 ft
Elevation 13 ft Threshold 0 ft Heading 330
Runway 17 Length 1909 ft width 59 ft
Elevation 17 ft Threshold 0 ft Heading 184
Runway 35 Length 1909 ft Width 59 ft
Elevation 13 ft Threshold 0 ft Heading 4
Airport Frequencies
Type APP Name BRISBANE A Frequency 123.5 MHZ
Type ATIS Name ATIS Frequency 112.3 MHZ
Type CTAF Name CTAF Frequency 118.7 MHZ
Type FSS Name BRISBANE R Frequency 119.5 MHZ
Type GCCD Name GND Frequency 121.8 MHZ
Type TWR Name TWR Frequency 118.7 MHZ
Airport Navaids
Type VOR-DME Name Coolangatta Frequency 112300 KHZ
Type NDB Name Coolangatta Frequency 278 KHZ
Airport Weather Information & NOTAM
ADDS - METARS form results

(1226 UTC 21 January 2021)
Data provider http://aviationweather.gov/metar/data/
 
METAR text: YBCG 211200Z AUTO 23005KT 9999 // SCT041 OVC059 20/16 Q1016
Conditions at: YBCG (COOLANGATTA AWS , AU) observed 1200 UTC 21 January 2021
Temperature: 20.0°C (68°F)
Dewpoint: 16.0°C (61°F) [RH = 78%]
Pressure (altimeter): 30.00 inches Hg (1016.0 mb)
Winds: from the SW (230 degrees) at 6 MPH (5 knots; 2.6 m/s)
Visibility: 6 or more miles (10+ km)
Ceiling: 5900 feet AGL
Clouds: scattered clouds at 4100 feet AGL
overcast cloud deck at 5900 feet AGL
Weather: no significant weather observed at this time

METAR text: YBCG 211130Z AUTO 24005KT 9999 // SCT039 BKN061 20/17 Q1016
Conditions at: YBCG (COOLANGATTA AWS , AU) observed 1130 UTC 21 January 2021
Temperature: 20.0°C (68°F)
Dewpoint: 17.0°C (63°F) [RH = 83%]
Pressure (altimeter): 30.00 inches Hg (1016.0 mb)
Winds: from the WSW (240 degrees) at 6 MPH (5 knots; 2.6 m/s)
Visibility: 6 or more miles (10+ km)
Ceiling: 6100 feet AGL
Clouds: scattered clouds at 3900 feet AGL
broken clouds at 6100 feet AGL
Weather: no significant weather observed at this time

Forecast for: YBCG (COOLANGATTA AWS , AU)
Text: TAF YBCG 211051Z 2112/2212 21006KT 9999 SCT025
Forecast period: 1200 to 2300 UTC 21 January 2021
Forecast type: FROM: standard forecast or significant change
Winds: from the SSW (210 degrees) at 7 MPH (6 knots; 3.1 m/s)
Visibility: 6 or more miles (10+ km)
Ceiling: at least 12,000 feet AGL
Clouds: scattered clouds at 2500 feet AGL
Weather: no significant weather forecast for this period
Text: FM212300 02010KT 9999 FEW035
Forecast period: 2300 UTC 21 January 2021 to 1200 UTC 22 January 2021
Forecast type: FROM: standard forecast or significant change
Winds: from the NNE (20 degrees) at 12 MPH (10 knots; 5.1 m/s)
Visibility: 6 or more miles (10+ km)
Ceiling: at least 12,000 feet AGL
Clouds: few clouds at 3500 feet AGL
Weather: no significant weather forecast for this period